createdAt,value
2023-01-22T00:02:12.833Z,100487.22
2023-01-22T00:04:39.427Z,100492.59
2023-01-22T00:07:06.006Z,100494.31
2023-01-22T00:09:32.551Z,100501.28
2023-01-22T00:11:59.164Z,100495.00
2023-01-22T00:14:25.807Z,100501.28
2023-01-22T00:16:52.434Z,100507.47
2023-01-22T00:19:19.024Z,100509.03
2023-01-22T00:21:45.599Z,100510.72
2023-01-22T00:24:12.607Z,100506.38
2023-01-22T00:26:39.333Z,100502.78
2023-01-22T00:29:06.322Z,100500.94
2023-01-22T00:31:32.987Z,100498.16
2023-01-22T00:33:59.656Z,100505.09
2023-01-22T00:36:26.325Z,100502.44
2023-01-22T00:38:52.940Z,100504.22
2023-01-22T00:41:20.276Z,100512.19
2023-01-22T00:43:47.381Z,100510.41
2023-01-22T00:46:15.974Z,100515.72
2023-01-22T00:48:45.210Z,100511.25
2023-01-22T00:51:14.833Z,100518.38
2023-01-22T00:53:43.619Z,100518.38
2023-01-22T00:56:11.626Z,100514.00
2023-01-22T00:58:38.242Z,100521.13
2023-01-22T01:01:06.027Z,100519.31
2023-01-22T01:03:33.939Z,100521.13
2023-01-22T01:06:10.750Z,100516.75
2023-01-22T01:08:42.512Z,100517.59
2023-01-22T01:11:13.583Z,100527.19
2023-01-22T01:13:45.258Z,100526.28
2023-01-22T01:16:15.762Z,100523.69
2023-01-22T01:18:43.202Z,100522.91
2023-01-22T01:21:12.040Z,100526.34
2023-01-22T01:23:39.543Z,100534.25
2023-01-22T01:26:10.311Z,100529.84
2023-01-22T01:28:38.144Z,100529.00
2023-01-22T01:31:06.742Z,100536.09
2023-01-22T01:33:33.476Z,100531.59
2023-01-22T01:36:02.632Z,100533.44
2023-01-22T01:38:29.403Z,100532.69
2023-01-22T01:40:56.021Z,100539.00
2023-01-22T01:43:22.666Z,100539.25
2023-01-22T01:45:49.643Z,100534.84
2023-01-22T01:48:24.203Z,100533.31
2023-01-22T01:51:10.507Z,100534.47
2023-01-22T01:53:39.736Z,100527.50
2023-01-22T01:56:11.064Z,100522.38
2023-01-22T01:58:39.837Z,100528.53
2023-01-22T02:01:11.982Z,100524.88
2023-01-22T02:03:40.491Z,100516.91
2023-01-22T02:06:11.039Z,100519.66
2023-01-22T02:08:38.196Z,100518.84
2023-01-22T02:11:05.015Z,100519.09
2023-01-22T02:13:33.973Z,100524.47
2023-01-22T02:16:00.918Z,100522.69
2023-01-22T02:18:27.736Z,100514.72
2023-01-22T02:21:00.747Z,100524.41
2023-01-22T02:23:30.330Z,100516.44
2023-01-22T02:25:58.511Z,100518.16
2023-01-22T02:28:25.286Z,100519.41
2023-01-22T02:30:51.873Z,100525.03
2023-01-22T02:33:18.443Z,100515.34
2023-01-22T02:35:45.222Z,100512.91
2023-01-22T02:38:11.796Z,100515.72
2023-01-22T02:40:49.196Z,100518.63
2023-01-22T02:43:16.487Z,100507.13
2023-01-22T02:45:43.286Z,100504.63
2023-01-22T02:48:09.947Z,100507.56
2023-01-22T02:50:36.560Z,100504.09
2023-01-22T02:53:03.196Z,100507.75
2023-01-22T02:55:29.779Z,100497.97
2023-01-22T02:57:56.526Z,100493.78
2023-01-22T03:00:23.188Z,100494.78
2023-01-22T03:02:49.768Z,100505.41
2023-01-22T03:05:16.381Z,100504.38
2023-01-22T03:07:44.837Z,100491.06
2023-01-22T03:10:17.820Z,100488.47
2023-01-22T03:13:04.299Z,100486.59
2023-01-22T03:15:49.683Z,100485.00
2023-01-22T03:18:34.902Z,100488.69
2023-01-22T03:21:16.661Z,100484.25
2023-01-22T03:23:46.387Z,100487.06
2023-01-22T03:26:13.554Z,100492.50
2023-01-22T03:28:40.175Z,100488.19
2023-01-22T03:31:06.880Z,100486.44
2023-01-22T03:33:33.544Z,100492.56
2023-01-22T03:36:04.790Z,100487.19
2023-01-22T03:38:32.018Z,100488.28
2023-01-22T03:41:07.937Z,100488.28
2023-01-22T03:43:35.560Z,100481.97
2023-01-22T03:46:13.275Z,100483.59
2023-01-22T03:48:40.294Z,100481.81
2023-01-22T03:51:17.334Z,100486.44
2023-01-22T03:53:45.150Z,100481.91
2023-01-22T03:56:22.503Z,100483.53
2023-01-22T03:58:49.931Z,100482.59
2023-01-22T04:01:19.161Z,100489.53
2023-01-22T04:03:46.530Z,100487.66
2023-01-22T04:06:14.155Z,100493.84
2023-01-22T04:08:43.201Z,100495.56
2023-01-22T04:11:10.830Z,100485.00
2023-01-22T04:13:39.735Z,100491.19
2023-01-22T04:16:07.412Z,100484.09
2023-01-22T04:18:34.228Z,100482.22
2023-01-22T04:21:01.045Z,100481.28
2023-01-22T04:23:27.752Z,100475.91
2023-01-22T04:25:54.562Z,100480.19
2023-01-22T04:28:21.550Z,100480.97
2023-01-22T04:30:52.130Z,100479.97
2023-01-22T04:33:19.018Z,100480.75
2023-01-22T04:35:49.094Z,100479.81
2023-01-22T04:38:15.656Z,100474.22
2023-01-22T04:40:42.232Z,100479.28
2023-01-22T04:43:10.046Z,100473.91
2023-01-22T04:45:36.740Z,100473.81
2023-01-22T04:48:03.581Z,100474.66
2023-01-22T04:50:32.821Z,100474.59
2023-01-22T04:53:00.381Z,100477.19
2023-01-22T04:55:27.820Z,100468.19
2023-01-22T04:57:56.493Z,100474.28
2023-01-22T05:00:24.008Z,100472.31
2023-01-22T05:02:50.862Z,100483.72
2023-01-22T05:05:17.601Z,100483.72
2023-01-22T05:07:44.181Z,100492.56
2023-01-22T05:10:10.964Z,100496.91
2023-01-22T05:12:37.569Z,100495.91
2023-01-22T05:15:14.947Z,100501.13
2023-01-22T05:17:45.245Z,100508.94
2023-01-22T05:20:12.031Z,100505.44
2023-01-22T05:22:38.711Z,100506.13
2023-01-22T05:25:06.326Z,100512.22
2023-01-22T05:27:32.975Z,100518.41
2023-01-22T05:29:59.610Z,100528.94
2023-01-22T05:32:26.175Z,100525.41
2023-01-22T05:34:52.819Z,100539.56
2023-01-22T05:37:19.382Z,100545.56
2023-01-22T05:39:45.945Z,100543.88
2023-01-22T05:42:14.985Z,100561.41
2023-01-22T05:44:42.039Z,100563.16
2023-01-22T05:47:09.207Z,100559.47
2023-01-22T05:49:35.899Z,100563.69
2023-01-22T05:52:02.424Z,100580.63
2023-01-22T05:54:29.040Z,100579.78
2023-01-22T05:56:55.563Z,100569.16
2023-01-22T05:59:22.127Z,100579.78
2023-01-22T06:01:48.688Z,100575.31
2023-01-22T06:04:15.238Z,100575.25
2023-01-22T06:06:41.811Z,100577.06
2023-01-22T06:09:08.422Z,100584.09
2023-01-22T06:11:34.977Z,100580.31
2023-01-22T06:14:01.558Z,100582.91
2023-01-22T06:16:28.152Z,100589.00
2023-01-22T06:18:54.976Z,100597.81
2023-01-22T06:21:21.535Z,100600.41
2023-01-22T06:23:48.090Z,100603.00
2023-01-22T06:26:14.660Z,100617.13
2023-01-22T06:28:41.250Z,100614.47
2023-01-22T06:31:08.073Z,100625.09
2023-01-22T06:33:35.618Z,100620.66
2023-01-22T06:36:03.255Z,100625.03
2023-01-22T06:38:30.727Z,100642.59
2023-01-22T06:40:59.370Z,100641.66
2023-01-22T06:43:27.242Z,100623.94
2023-01-22T06:45:54.520Z,100640.66
2023-01-22T06:48:21.155Z,100639.56
2023-01-22T06:50:47.787Z,100635.97
2023-01-22T06:53:14.498Z,100635.88
2023-01-22T06:55:41.435Z,100635.00
2023-01-22T06:58:08.012Z,100641.19
2023-01-22T07:00:34.594Z,100642.84
2023-01-22T07:03:05.712Z,100644.50
2023-01-22T07:05:32.365Z,100645.19
2023-01-22T07:07:58.939Z,100652.16
2023-01-22T07:10:25.499Z,100656.44
2023-01-22T07:12:55.597Z,100661.59
2023-01-22T07:15:22.364Z,100658.69
2023-01-22T07:17:52.709Z,100667.38
2023-01-22T07:20:20.745Z,100681.28
2023-01-22T07:22:47.424Z,100679.41
2023-01-22T07:25:14.441Z,100684.63
2023-01-22T07:27:41.597Z,100685.34
2023-01-22T07:30:09.119Z,100691.53
2023-01-22T07:32:36.200Z,100700.38
2023-01-22T07:35:02.787Z,100694.09
2023-01-22T07:37:29.356Z,100707.31
2023-01-22T07:39:55.883Z,100703.72
2023-01-22T07:42:22.448Z,100706.31
2023-01-22T07:44:48.983Z,100711.53
2023-01-22T07:47:15.645Z,100709.66
2023-01-22T07:49:42.195Z,100703.34
2023-01-22T07:52:08.938Z,100707.69
2023-01-22T07:54:36.527Z,100696.06
2023-01-22T07:57:03.908Z,100689.72
2023-01-22T07:59:30.721Z,100702.84
2023-01-22T08:01:57.509Z,100704.66
2023-01-22T08:04:24.863Z,100708.84
2023-01-22T08:06:52.191Z,100714.72
2023-01-22T08:09:24.902Z,100712.59
2023-01-22T08:11:53.119Z,100719.22
2023-01-22T08:14:20.126Z,100734.53
2023-01-22T08:16:47.053Z,100738.34
2023-01-22T08:19:13.842Z,100750.06
2023-01-22T08:21:40.511Z,100756.50
2023-01-22T08:24:08.269Z,100745.34
2023-01-22T08:26:35.203Z,100751.03
2023-01-22T08:29:05.299Z,100747.41
2023-01-22T08:31:33.951Z,100760.72
2023-01-22T08:34:00.962Z,100762.72
2023-01-22T08:36:27.674Z,100758.41
2023-01-22T08:38:54.410Z,100759.69
2023-01-22T08:41:21.426Z,100764.34
2023-01-22T08:43:47.997Z,100773.34
2023-01-22T08:46:16.296Z,100773.44
2023-01-22T08:48:44.219Z,100780.72
2023-01-22T08:51:12.177Z,100782.44
2023-01-22T08:53:38.878Z,100783.13
2023-01-22T08:56:06.342Z,100789.16
2023-01-22T08:58:33.242Z,100794.41
2023-01-22T09:00:59.940Z,100801.28
2023-01-22T09:03:26.557Z,100800.41
2023-01-22T09:05:53.161Z,100804.72
2023-01-22T09:08:20.375Z,100799.22
2023-01-22T09:10:47.944Z,100808.75
2023-01-22T09:13:14.545Z,100815.66
2023-01-22T09:15:41.154Z,100806.56
2023-01-22T09:18:08.153Z,100820.63
2023-01-22T09:20:34.812Z,100807.16
2023-01-22T09:23:01.435Z,100812.50
2023-01-22T09:25:29.227Z,100813.25
2023-01-22T09:28:00.449Z,100819.34
2023-01-22T09:30:29.893Z,100819.19
2023-01-22T09:32:56.648Z,100817.22
2023-01-22T09:35:23.288Z,100812.50
2023-01-22T09:37:49.885Z,100822.03
2023-01-22T09:40:31.711Z,100820.91
2023-01-22T09:43:34.931Z,100829.78
2023-01-22T09:46:15.559Z,100836.66
2023-01-22T09:48:48.099Z,100830.03
2023-01-22T09:51:15.727Z,100823.66
2023-01-22T09:53:46.596Z,100834.22
2023-01-22T09:56:29.085Z,100834.06
2023-01-22T09:58:57.657Z,100837.59
2023-01-22T10:01:25.369Z,100834.94
2023-01-22T10:04:00.080Z,100832.28
2023-01-22T10:06:28.371Z,100831.31
2023-01-22T10:09:11.143Z,100835.50
2023-01-22T10:11:38.583Z,100841.72
2023-01-22T10:14:08.548Z,100834.47
2023-01-22T10:16:36.453Z,100841.63
2023-01-22T10:19:12.133Z,100850.59
2023-01-22T10:21:47.647Z,100852.47
2023-01-22T10:24:14.368Z,100843.63
2023-01-22T10:26:46.406Z,100844.38
2023-01-22T10:29:21.883Z,100846.97
2023-01-22T10:31:52.989Z,100842.47
2023-01-22T10:34:34.450Z,100843.34
2023-01-22T10:37:13.385Z,100844.09
2023-01-22T10:39:47.497Z,100850.31
2023-01-22T10:42:21.314Z,100849.44
2023-01-22T10:44:49.559Z,100854.00
2023-01-22T10:47:22.197Z,100856.84
2023-01-22T10:50:01.071Z,100858.81
2023-01-22T10:52:36.387Z,100857.28
2023-01-22T10:55:03.764Z,100874.41
2023-01-22T10:57:34.360Z,100857.47
2023-01-22T11:00:21.091Z,100862.72
2023-01-22T11:02:50.478Z,100855.56
2023-01-22T11:05:22.212Z,100855.47
2023-01-22T11:07:53.393Z,100859.63
2023-01-22T11:10:25.196Z,100847.91
2023-01-22T11:13:12.936Z,100864.75
2023-01-22T11:15:58.048Z,100866.47
2023-01-22T11:18:38.907Z,100862.88
2023-01-22T11:21:18.753Z,100868.38
2023-01-22T11:24:04.556Z,100879.03
2023-01-22T11:26:48.526Z,100878.00
2023-01-22T11:29:30.289Z,100875.06
2023-01-22T11:32:44.319Z,100871.22
2023-01-22T11:35:17.136Z,100877.03
2023-01-22T11:37:58.187Z,100869.72
2023-01-22T11:40:30.751Z,100867.16
2023-01-22T11:43:18.000Z,100880.50
2023-01-22T11:45:54.442Z,100881.63
2023-01-22T11:48:26.944Z,100879.97
2023-01-22T11:51:08.035Z,100878.28
2023-01-22T11:54:04.735Z,100885.41
2023-01-22T11:56:58.461Z,100886.19
2023-01-22T11:59:43.643Z,100880.94
2023-01-22T12:02:32.071Z,100888.75
2023-01-22T12:05:04.428Z,100893.91
2023-01-22T12:08:12.850Z,100894.88
2023-01-22T12:10:59.811Z,100902.00
2023-01-22T12:13:57.514Z,100903.03
2023-01-22T12:16:32.969Z,100908.72
2023-01-22T12:19:20.842Z,100913.03
2023-01-22T12:22:03.514Z,100913.69
2023-01-22T12:24:56.492Z,100918.19
2023-01-22T12:27:35.562Z,100917.31
2023-01-22T12:30:08.143Z,100918.28
2023-01-22T12:32:37.766Z,100915.41
2023-01-22T12:35:06.230Z,100918.00
2023-01-22T12:37:44.164Z,100912.66
2023-01-22T12:40:26.372Z,100912.50
2023-01-22T12:43:04.748Z,100921.19
2023-01-22T12:45:40.474Z,100919.47
2023-01-22T12:48:23.683Z,100924.81
2023-01-22T12:50:53.019Z,100929.19
2023-01-22T12:53:24.445Z,100935.38
2023-01-22T12:56:09.792Z,100931.69
2023-01-22T12:58:42.032Z,100945.91
2023-01-22T13:01:11.527Z,100947.78
2023-01-22T13:03:40.460Z,100943.31
2023-01-22T13:06:29.898Z,100949.59
2023-01-22T13:08:56.496Z,100949.66
2023-01-22T13:11:38.043Z,100951.38
2023-01-22T13:14:15.642Z,100954.84
2023-01-22T13:16:54.487Z,100963.63
2023-01-22T13:19:29.415Z,100956.38
2023-01-22T13:22:00.905Z,100966.97
2023-01-22T13:24:27.427Z,100970.50
2023-01-22T13:27:02.501Z,100976.69
2023-01-22T13:29:37.142Z,100974.91
2023-01-22T13:32:05.008Z,100980.22
2023-01-22T13:34:32.513Z,100982.03
2023-01-22T13:36:59.068Z,100989.19
2023-01-22T13:39:27.346Z,100992.88
2023-01-22T13:41:55.938Z,100995.63
2023-01-22T13:44:26.521Z,100998.31
2023-01-22T13:46:53.797Z,101003.56
2023-01-22T13:49:29.083Z,101006.16
2023-01-22T13:52:00.906Z,101014.91
2023-01-22T13:54:33.492Z,101009.59
2023-01-22T13:57:00.390Z,101017.66
2023-01-22T13:59:34.986Z,101021.13
2023-01-22T14:02:20.146Z,101022.16
2023-01-22T14:04:47.643Z,101019.50
2023-01-22T14:07:35.135Z,101015.94
2023-01-22T14:10:30.822Z,101029.38
2023-01-22T14:13:02.716Z,101029.38
2023-01-22T14:15:29.668Z,101034.69
2023-01-22T14:18:11.496Z,101037.56
2023-01-22T14:20:42.731Z,101037.78
2023-01-22T14:23:09.371Z,101045.91
2023-01-22T14:25:41.735Z,101049.31
2023-01-22T14:28:08.392Z,101052.88
2023-01-22T14:30:35.243Z,101056.47
2023-01-22T14:33:02.093Z,101063.53
2023-01-22T14:35:29.302Z,101049.19
2023-01-22T14:37:58.399Z,101053.63
2023-01-22T14:40:26.883Z,101055.34
2023-01-22T14:42:53.897Z,101062.41
2023-01-22T14:45:21.166Z,101073.00
2023-01-22T14:47:52.366Z,101070.34
2023-01-22T14:50:20.752Z,101066.91
2023-01-22T14:52:50.954Z,101071.28
2023-01-22T14:55:18.199Z,101069.66
2023-01-22T14:57:44.982Z,101070.59
2023-01-22T15:00:14.164Z,101072.56
2023-01-22T15:02:41.708Z,101080.78
2023-01-22T15:05:09.846Z,101078.31
2023-01-22T15:07:37.759Z,101092.50
2023-01-22T15:10:06.070Z,101086.31
2023-01-22T15:12:32.795Z,101100.59
2023-01-22T15:14:59.376Z,101098.97
2023-01-22T15:17:25.975Z,101091.66
2023-01-22T15:19:52.653Z,101100.50
2023-01-22T15:22:19.299Z,101109.22
2023-01-22T15:24:45.983Z,101107.47
2023-01-22T15:27:18.404Z,101095.88
2023-01-22T15:29:46.256Z,101104.66
2023-01-22T15:32:13.031Z,101107.31
2023-01-22T15:34:39.636Z,101118.00
2023-01-22T15:37:06.445Z,101121.53
2023-01-22T15:39:32.992Z,101126.16
2023-01-22T15:41:59.757Z,101123.47
2023-01-22T15:44:26.348Z,101121.69
2023-01-22T15:46:52.903Z,101134.06
2023-01-22T15:49:20.352Z,101140.34
2023-01-22T15:51:46.951Z,101144.81
2023-01-22T15:54:15.516Z,101148.34
2023-01-22T15:56:42.218Z,101141.31
2023-01-22T15:59:09.017Z,101142.16
2023-01-22T16:01:35.654Z,101138.63
2023-01-22T16:04:03.059Z,101132.44
2023-01-22T16:06:32.038Z,101135.09
2023-01-22T16:09:00.395Z,101134.31
2023-01-22T16:11:28.844Z,101139.81
2023-01-22T16:13:56.215Z,101150.56
2023-01-22T16:16:31.458Z,101146.09
2023-01-22T16:19:00.127Z,101151.34
2023-01-22T16:21:27.048Z,101154.97
2023-01-22T16:23:59.358Z,101160.31
2023-01-22T16:26:28.776Z,101159.34
2023-01-22T16:28:56.854Z,101153.25
2023-01-22T16:31:25.975Z,101155.09
2023-01-22T16:33:58.400Z,101159.66
2023-01-22T16:36:27.374Z,101160.44
2023-01-22T16:38:53.997Z,101171.13
2023-01-22T16:41:31.910Z,101180.13
2023-01-22T16:44:07.341Z,101172.13
2023-01-22T16:46:36.298Z,101176.53
2023-01-22T16:49:08.721Z,101180.13
2023-01-22T16:51:38.125Z,101181.00
2023-01-22T16:54:06.388Z,101187.19
2023-01-22T16:56:33.827Z,101180.13
2023-01-22T16:59:01.015Z,101188.06
2023-01-22T17:01:29.860Z,101192.53
2023-01-22T17:03:56.876Z,101190.66
2023-01-22T17:06:26.759Z,101189.78
2023-01-22T17:08:54.080Z,101194.16
2023-01-22T17:11:21.236Z,101189.78
2023-01-22T17:13:48.230Z,101188.84
2023-01-22T17:16:16.012Z,101194.16
2023-01-22T17:18:42.669Z,101197.97
2023-01-22T17:21:12.395Z,101200.63
2023-01-22T17:23:39.025Z,101196.06
2023-01-22T17:26:10.514Z,101211.03
2023-01-22T17:28:39.557Z,101210.16
2023-01-22T17:31:11.907Z,101209.31
2023-01-22T17:33:38.955Z,101209.41
2023-01-22T17:36:06.322Z,101218.28
2023-01-22T17:38:37.578Z,101215.69
2023-01-22T17:41:14.935Z,101224.53
2023-01-22T17:43:43.741Z,101229.72
2023-01-22T17:46:13.556Z,101223.38
2023-01-22T17:48:40.484Z,101222.50
2023-01-22T17:51:10.630Z,101229.66
2023-01-22T17:53:39.145Z,101242.03
2023-01-22T17:56:17.223Z,101248.25
2023-01-22T17:58:46.999Z,101246.50
2023-01-22T18:01:15.276Z,101247.44
2023-01-22T18:03:41.867Z,101243.06
2023-01-22T18:06:08.693Z,101242.28
2023-01-22T18:08:38.503Z,101248.47
2023-01-22T18:11:08.518Z,101244.00
2023-01-22T18:13:38.221Z,101244.78
2023-01-22T18:16:07.631Z,101233.25
2023-01-22T18:18:34.765Z,101245.66
2023-01-22T18:21:01.814Z,101238.50
2023-01-22T18:23:28.531Z,101240.38
2023-01-22T18:25:57.953Z,101247.50
2023-01-22T18:28:26.615Z,101245.78
2023-01-22T18:30:54.425Z,101247.69
2023-01-22T18:33:21.517Z,101241.56
2023-01-22T18:35:51.113Z,101241.66
2023-01-22T18:38:20.771Z,101243.44
2023-01-22T18:40:48.441Z,101240.78
2023-01-22T18:43:15.317Z,101242.50
2023-01-22T18:45:42.058Z,101235.38
2023-01-22T18:48:13.311Z,101240.84
2023-01-22T18:50:40.632Z,101256.94
2023-01-22T18:53:08.036Z,101253.56
2023-01-22T18:55:35.656Z,101266.03
2023-01-22T18:58:33.978Z,101262.66
2023-01-22T19:01:13.123Z,101255.66
2023-01-22T19:03:44.729Z,101247.91
2023-01-22T19:06:14.381Z,101253.38
2023-01-22T19:08:43.167Z,101230.56
2023-01-22T19:11:12.111Z,101217.44
2023-01-22T19:13:42.394Z,101198.13
2023-01-22T19:16:11.145Z,101209.91
2023-01-22T19:18:42.249Z,101217.19
2023-01-22T19:21:12.724Z,101216.56
2023-01-22T19:23:47.981Z,101234.50
2023-01-22T19:26:30.712Z,101232.97
2023-01-22T19:29:02.958Z,101252.69
2023-01-22T19:31:32.569Z,101267.84
2023-01-22T19:34:00.631Z,101273.09
2023-01-22T19:36:30.153Z,101281.81
2023-01-22T19:38:58.927Z,101282.59
2023-01-22T19:41:26.636Z,101278.03
2023-01-22T19:43:59.175Z,101278.19
2023-01-22T19:46:26.938Z,101278.31
2023-01-22T19:48:54.930Z,101276.66
2023-01-22T19:51:22.957Z,101280.22
2023-01-22T19:53:49.874Z,101285.91
2023-01-22T19:56:22.249Z,101274.59
2023-01-22T19:58:50.234Z,101286.47
2023-01-22T20:01:17.344Z,101282.50
2023-01-22T20:03:44.511Z,101294.53
2023-01-22T20:06:13.257Z,101301.97
2023-01-22T20:08:39.887Z,101306.06
2023-01-22T20:11:09.060Z,101306.84
2023-01-22T20:13:37.166Z,101302.50
2023-01-22T20:16:05.390Z,101305.19
2023-01-22T20:18:33.055Z,101303.56
2023-01-22T20:21:01.973Z,101300.00
2023-01-22T20:23:29.671Z,101301.66
2023-01-22T20:25:59.043Z,101296.47
2023-01-22T20:28:25.830Z,101300.41
2023-01-22T20:31:01.064Z,101294.41
2023-01-22T20:33:28.349Z,101301.72
2023-01-22T20:35:56.939Z,101304.44
2023-01-22T20:38:23.871Z,101301.97
2023-01-22T20:40:50.494Z,101298.47
2023-01-22T20:43:17.875Z,101304.69
2023-01-22T20:45:44.574Z,101308.25
2023-01-22T20:48:11.222Z,101312.69
2023-01-22T20:50:42.022Z,101301.03
2023-01-22T20:53:08.624Z,101310.84
2023-01-22T20:55:35.289Z,101306.47
2023-01-22T20:58:01.929Z,101314.56
2023-01-22T21:00:28.484Z,101320.81
2023-01-22T21:02:55.105Z,101322.47
2023-01-22T21:05:21.726Z,101318.22
2023-01-22T21:07:48.410Z,101319.53
2023-01-22T21:10:15.255Z,101321.66
2023-01-22T21:12:42.226Z,101319.25
2023-01-22T21:15:09.454Z,101317.56
2023-01-22T21:17:36.863Z,101301.72
2023-01-22T21:20:04.263Z,101305.06
2023-01-22T21:22:30.887Z,101304.97
2023-01-22T21:24:57.639Z,101308.41
2023-01-22T21:27:24.235Z,101302.16
2023-01-22T21:29:51.891Z,101310.28
2023-01-22T21:32:19.204Z,101308.66
2023-01-22T21:34:45.810Z,101306.16
2023-01-22T21:37:12.364Z,101305.28
2023-01-22T21:39:44.999Z,101308.84
2023-01-22T21:42:31.324Z,101308.19
2023-01-22T21:45:16.708Z,101304.66
2023-01-22T21:47:43.244Z,101316.03
2023-01-22T21:50:10.435Z,101310.78
2023-01-22T21:52:36.979Z,101300.88
2023-01-22T21:55:03.913Z,101301.88
2023-01-22T21:57:30.468Z,101308.13
2023-01-22T21:59:57.038Z,101304.47
2023-01-22T22:02:23.648Z,101307.94
2023-01-22T22:04:51.506Z,101311.31
2023-01-22T22:07:18.351Z,101323.63
2023-01-22T22:09:45.019Z,101306.88
2023-01-22T22:12:11.898Z,101311.38
2023-01-22T22:14:38.586Z,101305.16
2023-01-22T22:17:05.184Z,101296.31
2023-01-22T22:19:31.981Z,101305.00
2023-01-22T22:21:58.636Z,101302.97
2023-01-22T22:24:25.445Z,101303.91
2023-01-22T22:26:52.072Z,101295.06
2023-01-22T22:29:18.659Z,101302.25
2023-01-22T22:31:45.276Z,101297.09
2023-01-22T22:34:12.032Z,101300.81
2023-01-22T22:36:38.838Z,101307.19
2023-01-22T22:39:06.615Z,101297.34
2023-01-22T22:41:36.159Z,101298.22
2023-01-22T22:44:03.216Z,101295.09
2023-01-22T22:46:32.445Z,101289.41
2023-01-22T22:49:00.443Z,101285.63
2023-01-22T22:51:32.866Z,101272.78
2023-01-22T22:54:03.779Z,101282.03
2023-01-22T22:56:31.081Z,101286.03
2023-01-22T22:58:59.559Z,101293.41
2023-01-22T23:01:28.247Z,101285.91
2023-01-22T23:03:55.109Z,101287.34
2023-01-22T23:06:27.860Z,101296.56
2023-01-22T23:08:56.392Z,101292.38
2023-01-22T23:11:26.072Z,101291.63
2023-01-22T23:14:01.378Z,101286.47
2023-01-22T23:16:34.941Z,101300.78
2023-01-22T23:19:04.064Z,101305.31
2023-01-22T23:21:30.794Z,101311.81
2023-01-22T23:23:57.504Z,101313.00
2023-01-22T23:26:29.911Z,101322.03
2023-01-22T23:29:00.455Z,101322.19
2023-01-22T23:31:28.772Z,101319.59
2023-01-22T23:33:57.832Z,101305.53
2023-01-22T23:36:28.218Z,101304.81
2023-01-22T23:38:55.134Z,101303.97
2023-01-22T23:41:22.301Z,101309.28
2023-01-22T23:43:50.233Z,101306.00
2023-01-22T23:46:24.129Z,101314.91
2023-01-22T23:48:51.858Z,101307.19
2023-01-22T23:51:19.359Z,101312.50
2023-01-22T23:53:48.645Z,101308.88
2023-01-22T23:56:15.523Z,101311.44
2023-01-22T23:58:42.225Z,101309.59
